sensor_id;sensor_type;location;lat;lon;timestamp;temperature;humidity
21592;DHT22;10958;50.892;3.992;2022-11-28T00:01:46;8.80;99.90
21592;DHT22;10958;50.892;3.992;2022-11-28T00:04:13;8.90;99.90
21592;DHT22;10958;50.892;3.992;2022-11-28T00:06:41;8.90;99.90
21592;DHT22;10958;50.892;3.992;2022-11-28T00:09:10;9.00;99.90
21592;DHT22;10958;50.892;3.992;2022-11-28T00:11:39;8.90;99.90
21592;DHT22;10958;50.892;3.992;2022-11-28T00:14:05;8.90;99.90
21592;DHT22;10958;50.892;3.992;2022-11-28T00:16:33;8.90;99.90
21592;DHT22;10958;50.892;3.992;2022-11-28T00:19:02;8.90;99.90
21592;DHT22;10958;50.892;3.992;2022-11-28T00:21:28;8.90;99.90
21592;DHT22;10958;50.892;3.992;2022-11-28T00:23:58;8.90;99.90
21592;DHT22;10958;50.892;3.992;2022-11-28T00:26:25;8.80;99.90
21592;DHT22;10958;50.892;3.992;2022-11-28T00:28:52;8.80;99.90
21592;DHT22;10958;50.892;3.992;2022-11-28T00:31:22;8.80;99.90
21592;DHT22;10958;50.892;3.992;2022-11-28T00:33:50;8.80;99.90
21592;DHT22;10958;50.892;3.992;2022-11-28T00:36:19;8.70;99.90
21592;DHT22;10958;50.892;3.992;2022-11-28T00:38:45;8.70;99.90
21592;DHT22;10958;50.892;3.992;2022-11-28T00:41:14;8.60;99.90
21592;DHT22;10958;50.892;3.992;2022-11-28T00:43:43;8.60;99.90
21592;DHT22;10958;50.892;3.992;2022-11-28T00:46:10;8.50;99.90
21592;DHT22;10958;50.892;3.992;2022-11-28T00:48:39;8.60;99.90
21592;DHT22;10958;50.892;3.992;2022-11-28T00:51:16;8.50;99.90
21592;DHT22;10958;50.892;3.992;2022-11-28T00:53:43;8.50;99.90
21592;DHT22;10958;50.892;3.992;2022-11-28T00:56:11;8.60;99.90
21592;DHT22;10958;50.892;3.992;2022-11-28T00:58:39;8.70;99.90
21592;DHT22;10958;50.892;3.992;2022-11-28T01:01:09;8.60;99.90
21592;DHT22;10958;50.892;3.992;2022-11-28T01:03:35;8.60;99.90
21592;DHT22;10958;50.892;3.992;2022-11-28T01:06:04;8.50;99.90
21592;DHT22;10958;50.892;3.992;2022-11-28T01:08:30;8.60;99.90
21592;DHT22;10958;50.892;3.992;2022-11-28T01:10:56;8.60;99.90
21592;DHT22;10958;50.892;3.992;2022-11-28T01:13:25;8.70;99.90
21592;DHT22;10958;50.892;3.992;2022-11-28T01:15:51;8.60;99.90
21592;DHT22;10958;50.892;3.992;2022-11-28T01:18:17;8.60;99.90
21592;DHT22;10958;50.892;3.992;2022-11-28T01:20:46;8.60;99.90
21592;DHT22;10958;50.892;3.992;2022-11-28T01:23:11;8.60;99.90
21592;DHT22;10958;50.892;3.992;2022-11-28T01:25:39;8.60;99.90
21592;DHT22;10958;50.892;3.992;2022-11-28T01:28:05;8.70;99.90
21592;DHT22;10958;50.892;3.992;2022-11-28T01:30:33;8.60;99.90
21592;DHT22;10958;50.892;3.992;2022-11-28T01:32:59;8.60;99.90
21592;DHT22;10958;50.892;3.992;2022-11-28T01:35:27;8.60;99.90
21592;DHT22;10958;50.892;3.992;2022-11-28T01:37:52;8.70;99.90
21592;DHT22;10958;50.892;3.992;2022-11-28T01:40:18;8.70;99.90
21592;DHT22;10958;50.892;3.992;2022-11-28T01:42:44;8.80;99.90
21592;DHT22;10958;50.892;3.992;2022-11-28T01:47:38;8.80;99.90
21592;DHT22;10958;50.892;3.992;2022-11-28T01:50:05;8.70;99.90
21592;DHT22;10958;50.892;3.992;2022-11-28T01:52:32;8.70;99.90
21592;DHT22;10958;50.892;3.992;2022-11-28T01:55:00;8.60;99.90
21592;DHT22;10958;50.892;3.992;2022-11-28T01:57:27;8.60;99.90
21592;DHT22;10958;50.892;3.992;2022-11-28T02:00:15;8.60;99.90
21592;DHT22;10958;50.892;3.992;2022-11-28T02:02:47;8.70;99.90
21592;DHT22;10958;50.892;3.992;2022-11-28T02:05:15;8.60;99.90
21592;DHT22;10958;50.892;3.992;2022-11-28T02:07:41;8.70;99.90
21592;DHT22;10958;50.892;3.992;2022-11-28T02:10:10;8.70;99.90
21592;DHT22;10958;50.892;3.992;2022-11-28T02:34:03;8.70;99.90
21592;DHT22;10958;50.892;3.992;2022-11-28T02:36:46;8.80;99.90
21592;DHT22;10958;50.892;3.992;2022-11-28T02:42:16;8.90;99.90
21592;DHT22;10958;50.892;3.992;2022-11-28T02:45:12;8.90;99.90
21592;DHT22;10958;50.892;3.992;2022-11-28T02:47:47;8.90;99.90
21592;DHT22;10958;50.892;3.992;2022-11-28T02:50:20;8.70;99.90
21592;DHT22;10958;50.892;3.992;2022-11-28T02:53:00;8.70;99.90
21592;DHT22;10958;50.892;3.992;2022-11-28T02:55:39;8.80;99.90
21592;DHT22;10958;50.892;3.992;2022-11-28T02:58:05;8.80;99.90
21592;DHT22;10958;50.892;3.992;2022-11-28T03:00:36;8.80;99.90
21592;DHT22;10958;50.892;3.992;2022-11-28T03:03:23;8.80;99.90
21592;DHT22;10958;50.892;3.992;2022-11-28T03:06:14;8.80;99.90
21592;DHT22;10958;50.892;3.992;2022-11-28T03:17:13;8.80;99.90
21592;DHT22;10958;50.892;3.992;2022-11-28T03:20:00;8.90;99.90
21592;DHT22;10958;50.892;3.992;2022-11-28T03:22:37;8.80;99.90
21592;DHT22;10958;50.892;3.992;2022-11-28T03:25:19;8.90;99.90
21592;DHT22;10958;50.892;3.992;2022-11-28T03:27:57;8.80;99.90
21592;DHT22;10958;50.892;3.992;2022-11-28T03:30:42;8.80;99.90
21592;DHT22;10958;50.892;3.992;2022-11-28T03:33:14;8.80;99.90
21592;DHT22;10958;50.892;3.992;2022-11-28T03:36:05;9.00;99.90
21592;DHT22;10958;50.892;3.992;2022-11-28T03:38:37;8.90;99.90
21592;DHT22;10958;50.892;3.992;2022-11-28T03:41:17;8.90;99.90
21592;DHT22;10958;50.892;3.992;2022-11-28T03:43:49;8.80;99.90
21592;DHT22;10958;50.892;3.992;2022-11-28T03:46:20;8.80;99.90
21592;DHT22;10958;50.892;3.992;2022-11-28T03:48:53;8.90;99.90
21592;DHT22;10958;50.892;3.992;2022-11-28T03:51:27;8.80;99.90
21592;DHT22;10958;50.892;3.992;2022-11-28T03:53:59;8.90;99.90
21592;DHT22;10958;50.892;3.992;2022-11-28T03:56:33;8.90;99.90
21592;DHT22;10958;50.892;3.992;2022-11-28T03:59:11;8.90;99.90
21592;DHT22;10958;50.892;3.992;2022-11-28T04:02:01;8.90;99.90
21592;DHT22;10958;50.892;3.992;2022-11-28T04:04:47;8.80;99.90
21592;DHT22;10958;50.892;3.992;2022-11-28T04:07:39;8.90;99.90
21592;DHT22;10958;50.892;3.992;2022-11-28T04:18:41;9.10;99.90
21592;DHT22;10958;50.892;3.992;2022-11-28T04:21:13;9.10;99.90
21592;DHT22;10958;50.892;3.992;2022-11-28T04:23:43;9.20;99.90
21592;DHT22;10958;50.892;3.992;2022-11-28T04:26:14;9.20;99.90
21592;DHT22;10958;50.892;3.992;2022-11-28T04:28:43;9.10;99.90
21592;DHT22;10958;50.892;3.992;2022-11-28T04:31:11;9.10;99.90
21592;DHT22;10958;50.892;3.992;2022-11-28T04:33:40;9.20;99.90
21592;DHT22;10958;50.892;3.992;2022-11-28T04:36:10;9.20;99.90
21592;DHT22;10958;50.892;3.992;2022-11-28T04:38:38;9.20;99.90
21592;DHT22;10958;50.892;3.992;2022-11-28T04:41:07;9.20;99.90
21592;DHT22;10958;50.892;3.992;2022-11-28T04:43:36;9.10;99.90
21592;DHT22;10958;50.892;3.992;2022-11-28T04:46:08;9.10;99.90
21592;DHT22;10958;50.892;3.992;2022-11-28T04:48:35;9.10;99.90
21592;DHT22;10958;50.892;3.992;2022-11-28T04:51:08;9.20;99.90
21592;DHT22;10958;50.892;3.992;2022-11-28T04:53:49;9.20;99.90
21592;DHT22;10958;50.892;3.992;2022-11-28T04:56:21;9.30;99.90
21592;DHT22;10958;50.892;3.992;2022-11-28T04:58:49;9.10;99.90
21592;DHT22;10958;50.892;3.992;2022-11-28T05:01:25;9.10;99.90
21592;DHT22;10958;50.892;3.992;2022-11-28T05:03:53;9.10;99.90
21592;DHT22;10958;50.892;3.992;2022-11-28T05:06:27;9.20;99.90
21592;DHT22;10958;50.892;3.992;2022-11-28T05:08:53;9.30;99.90
21592;DHT22;10958;50.892;3.992;2022-11-28T05:11:18;9.30;99.90
21592;DHT22;10958;50.892;3.992;2022-11-28T05:13:44;9.40;99.90
21592;DHT22;10958;50.892;3.992;2022-11-28T05:16:14;9.50;99.90
21592;DHT22;10958;50.892;3.992;2022-11-28T05:18:39;9.40;99.90
21592;DHT22;10958;50.892;3.992;2022-11-28T05:21:06;9.20;99.90
21592;DHT22;10958;50.892;3.992;2022-11-28T05:23:35;9.30;99.90
21592;DHT22;10958;50.892;3.992;2022-11-28T05:26:08;9.30;99.90
21592;DHT22;10958;50.892;3.992;2022-11-28T05:28:34;9.40;99.90
21592;DHT22;10958;50.892;3.992;2022-11-28T05:31:03;9.30;99.90
21592;DHT22;10958;50.892;3.992;2022-11-28T05:33:32;9.30;99.90
21592;DHT22;10958;50.892;3.992;2022-11-28T05:36:05;9.20;99.90
21592;DHT22;10958;50.892;3.992;2022-11-28T05:38:32;9.20;99.90
21592;DHT22;10958;50.892;3.992;2022-11-28T05:41:00;9.20;99.90
21592;DHT22;10958;50.892;3.992;2022-11-28T05:43:27;9.20;99.90
21592;DHT22;10958;50.892;3.992;2022-11-28T05:45:52;9.10;99.90
21592;DHT22;10958;50.892;3.992;2022-11-28T05:48:18;9.20;99.90
21592;DHT22;10958;50.892;3.992;2022-11-28T05:50:45;9.10;99.90
21592;DHT22;10958;50.892;3.992;2022-11-28T05:53:11;9.20;99.90
21592;DHT22;10958;50.892;3.992;2022-11-28T05:55:42;9.20;99.90
21592;DHT22;10958;50.892;3.992;2022-11-28T05:58:08;9.20;99.90
21592;DHT22;10958;50.892;3.992;2022-11-28T06:00:34;9.20;99.90
21592;DHT22;10958;50.892;3.992;2022-11-28T06:03:05;9.30;99.90
21592;DHT22;10958;50.892;3.992;2022-11-28T06:05:33;9.30;99.90
21592;DHT22;10958;50.892;3.992;2022-11-28T06:08:01;9.40;99.90
21592;DHT22;10958;50.892;3.992;2022-11-28T06:10:27;9.30;99.90
21592;DHT22;10958;50.892;3.992;2022-11-28T06:12:53;9.40;99.90
21592;DHT22;10958;50.892;3.992;2022-11-28T06:15:18;9.50;99.90
21592;DHT22;10958;50.892;3.992;2022-11-28T06:17:44;9.50;99.90
21592;DHT22;10958;50.892;3.992;2022-11-28T06:20:10;9.80;99.90
21592;DHT22;10958;50.892;3.992;2022-11-28T06:22:36;9.80;99.90
21592;DHT22;10958;50.892;3.992;2022-11-28T06:25:02;9.60;99.90
21592;DHT22;10958;50.892;3.992;2022-11-28T06:27:28;9.50;99.90
21592;DHT22;10958;50.892;3.992;2022-11-28T06:29:54;9.60;99.90
21592;DHT22;10958;50.892;3.992;2022-11-28T06:32:20;9.60;99.90
21592;DHT22;10958;50.892;3.992;2022-11-28T06:34:58;9.80;99.90
21592;DHT22;10958;50.892;3.992;2022-11-28T06:37:24;9.70;99.90
21592;DHT22;10958;50.892;3.992;2022-11-28T06:39:50;9.80;99.90
21592;DHT22;10958;50.892;3.992;2022-11-28T06:42:18;9.90;99.90
21592;DHT22;10958;50.892;3.992;2022-11-28T06:44:47;9.90;99.90
21592;DHT22;10958;50.892;3.992;2022-11-28T06:47:15;10.00;99.90
21592;DHT22;10958;50.892;3.992;2022-11-28T06:49:41;10.00;99.90
21592;DHT22;10958;50.892;3.992;2022-11-28T06:52:07;9.90;99.90
21592;DHT22;10958;50.892;3.992;2022-11-28T06:54:33;9.90;99.90
21592;DHT22;10958;50.892;3.992;2022-11-28T06:56:59;9.70;99.90
21592;DHT22;10958;50.892;3.992;2022-11-28T06:59:25;9.70;99.90
21592;DHT22;10958;50.892;3.992;2022-11-28T07:01:50;9.80;99.90
21592;DHT22;10958;50.892;3.992;2022-11-28T07:04:16;9.90;99.90
21592;DHT22;10958;50.892;3.992;2022-11-28T07:06:42;9.80;99.90
21592;DHT22;10958;50.892;3.992;2022-11-28T07:09:09;9.80;99.90
21592;DHT22;10958;50.892;3.992;2022-11-28T07:11:34;9.70;99.90
21592;DHT22;10958;50.892;3.992;2022-11-28T07:14:01;9.70;99.90
21592;DHT22;10958;50.892;3.992;2022-11-28T07:16:30;9.70;99.90
21592;DHT22;10958;50.892;3.992;2022-11-28T07:18:57;9.80;99.90
21592;DHT22;10958;50.892;3.992;2022-11-28T07:21:26;9.80;99.90
21592;DHT22;10958;50.892;3.992;2022-11-28T07:23:52;9.70;99.90
21592;DHT22;10958;50.892;3.992;2022-11-28T07:26:19;9.80;99.90
21592;DHT22;10958;50.892;3.992;2022-11-28T07:28:46;9.80;99.90
21592;DHT22;10958;50.892;3.992;2022-11-28T07:31:14;9.80;99.90
21592;DHT22;10958;50.892;3.992;2022-11-28T07:33:43;9.80;99.90
21592;DHT22;10958;50.892;3.992;2022-11-28T07:36:15;9.90;99.90
21592;DHT22;10958;50.892;3.992;2022-11-28T07:38:41;9.80;99.90
21592;DHT22;10958;50.892;3.992;2022-11-28T07:41:09;10.00;99.90
21592;DHT22;10958;50.892;3.992;2022-11-28T07:43:36;9.90;99.90
21592;DHT22;10958;50.892;3.992;2022-11-28T07:46:07;9.80;99.90
21592;DHT22;10958;50.892;3.992;2022-11-28T07:48:34;9.90;99.90
21592;DHT22;10958;50.892;3.992;2022-11-28T07:54:16;9.90;99.90
21592;DHT22;10958;50.892;3.992;2022-11-28T07:56:42;10.00;99.90
21592;DHT22;10958;50.892;3.992;2022-11-28T07:59:08;10.00;99.90
21592;DHT22;10958;50.892;3.992;2022-11-28T08:01:37;10.00;99.90
21592;DHT22;10958;50.892;3.992;2022-11-28T08:04:07;10.10;99.90
21592;DHT22;10958;50.892;3.992;2022-11-28T08:06:39;10.00;99.90
21592;DHT22;10958;50.892;3.992;2022-11-28T08:09:06;10.10;99.90
21592;DHT22;10958;50.892;3.992;2022-11-28T08:11:33;10.20;99.90
21592;DHT22;10958;50.892;3.992;2022-11-28T08:14:02;10.20;99.90
21592;DHT22;10958;50.892;3.992;2022-11-28T08:16:28;10.20;99.90
21592;DHT22;10958;50.892;3.992;2022-11-28T08:18:55;10.00;99.90
21592;DHT22;10958;50.892;3.992;2022-11-28T08:21:29;10.00;99.90
21592;DHT22;10958;50.892;3.992;2022-11-28T08:23:57;9.90;99.90
21592;DHT22;10958;50.892;3.992;2022-11-28T08:26:24;9.80;99.90
21592;DHT22;10958;50.892;3.992;2022-11-28T08:28:51;9.90;99.90
21592;DHT22;10958;50.892;3.992;2022-11-28T08:31:27;9.90;99.90
21592;DHT22;10958;50.892;3.992;2022-11-28T08:33:54;10.00;99.90
21592;DHT22;10958;50.892;3.992;2022-11-28T08:36:21;10.00;99.90
21592;DHT22;10958;50.892;3.992;2022-11-28T08:38:47;10.20;99.90
21592;DHT22;10958;50.892;3.992;2022-11-28T08:41:16;10.20;99.90
21592;DHT22;10958;50.892;3.992;2022-11-28T08:43:43;10.20;99.90
21592;DHT22;10958;50.892;3.992;2022-11-28T08:46:16;10.10;99.90
21592;DHT22;10958;50.892;3.992;2022-11-28T08:48:43;10.00;99.90
21592;DHT22;10958;50.892;3.992;2022-11-28T08:51:18;9.90;99.90
21592;DHT22;10958;50.892;3.992;2022-11-28T08:53:55;9.80;99.90
21592;DHT22;10958;50.892;3.992;2022-11-28T08:56:21;10.00;99.90
21592;DHT22;10958;50.892;3.992;2022-11-28T08:58:57;9.80;99.90
21592;DHT22;10958;50.892;3.992;2022-11-28T09:01:45;9.70;99.90
21592;DHT22;10958;50.892;3.992;2022-11-28T09:04:34;9.60;99.90
21592;DHT22;10958;50.892;3.992;2022-11-28T09:07:03;9.70;99.90
21592;DHT22;10958;50.892;3.992;2022-11-28T09:09:29;9.80;99.90
21592;DHT22;10958;50.892;3.992;2022-11-28T09:11:55;9.90;99.90
21592;DHT22;10958;50.892;3.992;2022-11-28T09:14:26;10.00;99.90
21592;DHT22;10958;50.892;3.992;2022-11-28T09:16:52;10.00;99.90
21592;DHT22;10958;50.892;3.992;2022-11-28T09:19:27;10.20;99.90
21592;DHT22;10958;50.892;3.992;2022-11-28T09:21:53;10.30;99.90
21592;DHT22;10958;50.892;3.992;2022-11-28T09:24:18;10.30;99.90
21592;DHT22;10958;50.892;3.992;2022-11-28T09:26:44;10.40;99.90
21592;DHT22;10958;50.892;3.992;2022-11-28T09:29:12;10.50;99.90
21592;DHT22;10958;50.892;3.992;2022-11-28T09:31:38;10.50;99.90
21592;DHT22;10958;50.892;3.992;2022-11-28T09:34:04;10.50;99.90
21592;DHT22;10958;50.892;3.992;2022-11-28T09:36:31;10.60;99.90
21592;DHT22;10958;50.892;3.992;2022-11-28T09:39:08;10.60;99.90
21592;DHT22;10958;50.892;3.992;2022-11-28T09:44:46;10.60;99.90
21592;DHT22;10958;50.892;3.992;2022-11-28T09:50:18;10.50;99.90
21592;DHT22;10958;50.892;3.992;2022-11-28T09:53:13;10.60;99.90
21592;DHT22;10958;50.892;3.992;2022-11-28T09:56:02;10.50;99.90
21592;DHT22;10958;50.892;3.992;2022-11-28T09:58:47;10.60;99.90
21592;DHT22;10958;50.892;3.992;2022-11-28T10:04:15;10.70;99.90
21592;DHT22;10958;50.892;3.992;2022-11-28T10:07:14;10.60;99.90
21592;DHT22;10958;50.892;3.992;2022-11-28T10:10:02;10.70;99.90
21592;DHT22;10958;50.892;3.992;2022-11-28T10:20:53;10.90;99.90
21592;DHT22;10958;50.892;3.992;2022-11-28T10:23:38;10.90;99.90
21592;DHT22;10958;50.892;3.992;2022-11-28T10:26:07;10.90;99.90
21592;DHT22;10958;50.892;3.992;2022-11-28T10:28:48;11.00;99.90
21592;DHT22;10958;50.892;3.992;2022-11-28T10:31:34;10.90;99.90
21592;DHT22;10958;50.892;3.992;2022-11-28T10:34:31;10.90;99.90
21592;DHT22;10958;50.892;3.992;2022-11-28T10:37:30;10.70;99.90
21592;DHT22;10958;50.892;3.992;2022-11-28T10:48:56;10.80;99.90
21592;DHT22;10958;50.892;3.992;2022-11-28T10:58:15;10.80;99.90
21592;DHT22;10958;50.892;3.992;2022-11-28T11:03:38;10.70;99.90
21592;DHT22;10958;50.892;3.992;2022-11-28T11:06:08;10.70;99.90
21592;DHT22;10958;50.892;3.992;2022-11-28T11:08:36;10.70;99.90
21592;DHT22;10958;50.892;3.992;2022-11-28T11:11:42;10.80;99.90
21592;DHT22;10958;50.892;3.992;2022-11-28T11:14:37;10.80;99.90
21592;DHT22;10958;50.892;3.992;2022-11-28T11:17:43;10.70;99.90
21592;DHT22;10958;50.892;3.992;2022-11-28T11:23:19;10.70;99.90
21592;DHT22;10958;50.892;3.992;2022-11-28T11:26:05;10.80;99.90
21592;DHT22;10958;50.892;3.992;2022-11-28T11:29:03;10.80;99.90
21592;DHT22;10958;50.892;3.992;2022-11-28T11:31:42;10.80;99.90
21592;DHT22;10958;50.892;3.992;2022-11-28T11:34:16;10.90;99.90
21592;DHT22;10958;50.892;3.992;2022-11-28T11:36:45;11.00;99.90
21592;DHT22;10958;50.892;3.992;2022-11-28T11:44:33;10.80;99.90
21592;DHT22;10958;50.892;3.992;2022-11-28T11:47:11;10.90;99.90
21592;DHT22;10958;50.892;3.992;2022-11-28T11:49:48;10.80;99.90
21592;DHT22;10958;50.892;3.992;2022-11-28T11:52:33;10.80;99.90
21592;DHT22;10958;50.892;3.992;2022-11-28T11:55:14;10.70;99.90
21592;DHT22;10958;50.892;3.992;2022-11-28T11:57:49;10.80;99.90
21592;DHT22;10958;50.892;3.992;2022-11-28T12:00:28;11.00;99.90
21592;DHT22;10958;50.892;3.992;2022-11-28T12:03:14;11.20;99.90
21592;DHT22;10958;50.892;3.992;2022-11-28T12:06:16;11.10;99.90
21592;DHT22;10958;50.892;3.992;2022-11-28T12:12:09;10.90;99.90
21592;DHT22;10958;50.892;3.992;2022-11-28T12:14:37;11.00;99.90
21592;DHT22;10958;50.892;3.992;2022-11-28T12:22:53;11.30;99.90
21592;DHT22;10958;50.892;3.992;2022-11-28T12:25:33;11.30;99.90
21592;DHT22;10958;50.892;3.992;2022-11-28T12:36:18;11.70;99.90
21592;DHT22;10958;50.892;3.992;2022-11-28T12:41:37;12.00;99.90
21592;DHT22;10958;50.892;3.992;2022-11-28T12:44:23;12.20;99.90
21592;DHT22;10958;50.892;3.992;2022-11-28T12:58:12;11.90;99.90
21592;DHT22;10958;50.892;3.992;2022-11-28T13:01:07;12.10;99.90
21592;DHT22;10958;50.892;3.992;2022-11-28T13:09:29;12.10;99.90
21592;DHT22;10958;50.892;3.992;2022-11-28T13:12:10;12.10;99.90
21592;DHT22;10958;50.892;3.992;2022-11-28T13:14:50;12.20;99.90
21592;DHT22;10958;50.892;3.992;2022-11-28T13:17:38;12.20;99.90
21592;DHT22;10958;50.892;3.992;2022-11-28T13:26:23;11.70;99.90
21592;DHT22;10958;50.892;3.992;2022-11-28T13:28:55;11.80;99.90
21592;DHT22;10958;50.892;3.992;2022-11-28T13:31:28;11.80;99.90
21592;DHT22;10958;50.892;3.992;2022-11-28T13:33:58;11.90;99.90
21592;DHT22;10958;50.892;3.992;2022-11-28T13:36:39;11.90;99.90
21592;DHT22;10958;50.892;3.992;2022-11-28T13:44:35;12.20;99.90
21592;DHT22;10958;50.892;3.992;2022-11-28T13:47:35;12.30;99.90
21592;DHT22;10958;50.892;3.992;2022-11-28T13:58:47;12.20;99.90
21592;DHT22;10958;50.892;3.992;2022-11-28T14:01:20;12.20;99.90
21592;DHT22;10958;50.892;3.992;2022-11-28T14:06:16;12.20;99.90
21592;DHT22;10958;50.892;3.992;2022-11-28T14:08:45;12.10;99.90
21592;DHT22;10958;50.892;3.992;2022-11-28T14:25:26;12.30;99.90
21592;DHT22;10958;50.892;3.992;2022-11-28T14:28:06;12.50;99.90
21592;DHT22;10958;50.892;3.992;2022-11-28T14:30:42;12.50;99.90
21592;DHT22;10958;50.892;3.992;2022-11-28T14:33:19;12.50;99.90
21592;DHT22;10958;50.892;3.992;2022-11-28T14:41:08;12.40;99.90
21592;DHT22;10958;50.892;3.992;2022-11-28T14:43:45;12.20;99.90
21592;DHT22;10958;50.892;3.992;2022-11-28T14:54:27;12.40;99.90
21592;DHT22;10958;50.892;3.992;2022-11-28T14:56:55;12.30;99.90
21592;DHT22;10958;50.892;3.992;2022-11-28T14:59:26;12.30;99.90
21592;DHT22;10958;50.892;3.992;2022-11-28T15:06:57;12.30;99.90
21592;DHT22;10958;50.892;3.992;2022-11-28T15:09:34;12.40;99.90
21592;DHT22;10958;50.892;3.992;2022-11-28T15:14:38;12.40;99.90
21592;DHT22;10958;50.892;3.992;2022-11-28T15:17:10;12.20;99.90
21592;DHT22;10958;50.892;3.992;2022-11-28T15:19:42;12.20;99.90
21592;DHT22;10958;50.892;3.992;2022-11-28T15:22:40;12.30;99.90
21592;DHT22;10958;50.892;3.992;2022-11-28T15:25:26;12.40;99.90
21592;DHT22;10958;50.892;3.992;2022-11-28T15:27:53;12.30;99.90
21592;DHT22;10958;50.892;3.992;2022-11-28T15:30:24;12.40;99.90
21592;DHT22;10958;50.892;3.992;2022-11-28T15:33:10;12.10;99.90
21592;DHT22;10958;50.892;3.992;2022-11-28T15:35:38;11.70;99.90
21592;DHT22;10958;50.892;3.992;2022-11-28T15:38:11;11.70;99.90
21592;DHT22;10958;50.892;3.992;2022-11-28T15:40:39;11.50;99.90
21592;DHT22;10958;50.892;3.992;2022-11-28T15:43:13;11.70;99.90
21592;DHT22;10958;50.892;3.992;2022-11-28T15:45:39;11.50;99.90
21592;DHT22;10958;50.892;3.992;2022-11-28T15:50:50;11.40;99.90
21592;DHT22;10958;50.892;3.992;2022-11-28T15:53:19;11.30;99.90
21592;DHT22;10958;50.892;3.992;2022-11-28T15:55:45;11.40;99.90
21592;DHT22;10958;50.892;3.992;2022-11-28T15:58:20;11.30;99.90
21592;DHT22;10958;50.892;3.992;2022-11-28T16:00:54;11.10;99.90
21592;DHT22;10958;50.892;3.992;2022-11-28T16:03:23;11.20;99.90
21592;DHT22;10958;50.892;3.992;2022-11-28T16:05:52;11.40;99.90
21592;DHT22;10958;50.892;3.992;2022-11-28T16:08:34;11.60;99.90
21592;DHT22;10958;50.892;3.992;2022-11-28T16:11:05;11.70;99.90
21592;DHT22;10958;50.892;3.992;2022-11-28T16:13:36;11.50;99.90
21592;DHT22;10958;50.892;3.992;2022-11-28T16:16:09;11.30;99.90
21592;DHT22;10958;50.892;3.992;2022-11-28T16:18:45;11.20;99.90
21592;DHT22;10958;50.892;3.992;2022-11-28T16:21:36;11.50;99.90
21592;DHT22;10958;50.892;3.992;2022-11-28T16:24:16;11.80;99.90
21592;DHT22;10958;50.892;3.992;2022-11-28T16:26:55;11.90;99.90
21592;DHT22;10958;50.892;3.992;2022-11-28T16:29:29;12.10;99.90
21592;DHT22;10958;50.892;3.992;2022-11-28T16:32:08;12.20;99.90
21592;DHT22;10958;50.892;3.992;2022-11-28T16:35:05;12.30;99.90
21592;DHT22;10958;50.892;3.992;2022-11-28T16:37:32;12.40;99.90
21592;DHT22;10958;50.892;3.992;2022-11-28T16:40:20;12.50;99.90
21592;DHT22;10958;50.892;3.992;2022-11-28T16:42:57;12.20;99.90
21592;DHT22;10958;50.892;3.992;2022-11-28T16:45:31;12.30;99.90
21592;DHT22;10958;50.892;3.992;2022-11-28T16:48:14;12.40;99.90
21592;DHT22;10958;50.892;3.992;2022-11-28T16:51:26;12.40;99.90
21592;DHT22;10958;50.892;3.992;2022-11-28T16:53:56;12.30;99.90
21592;DHT22;10958;50.892;3.992;2022-11-28T16:59:18;12.40;99.90
21592;DHT22;10958;50.892;3.992;2022-11-28T17:01:47;12.40;99.90
21592;DHT22;10958;50.892;3.992;2022-11-28T17:04:24;12.30;99.90
21592;DHT22;10958;50.892;3.992;2022-11-28T17:06:51;12.20;99.90
21592;DHT22;10958;50.892;3.992;2022-11-28T17:09:18;12.20;99.90
21592;DHT22;10958;50.892;3.992;2022-11-28T17:12:01;12.10;99.90
21592;DHT22;10958;50.892;3.992;2022-11-28T17:14:27;12.10;99.90
21592;DHT22;10958;50.892;3.992;2022-11-28T17:16:53;12.10;99.90
21592;DHT22;10958;50.892;3.992;2022-11-28T17:19:19;12.10;99.90
21592;DHT22;10958;50.892;3.992;2022-11-28T17:21:53;12.00;99.90
21592;DHT22;10958;50.892;3.992;2022-11-28T17:24:49;11.90;99.90
21592;DHT22;10958;50.892;3.992;2022-11-28T17:27:42;11.70;99.90
21592;DHT22;10958;50.892;3.992;2022-11-28T17:30:16;11.70;99.90
21592;DHT22;10958;50.892;3.992;2022-11-28T17:32:42;11.60;99.90
21592;DHT22;10958;50.892;3.992;2022-11-28T17:35:13;11.50;99.90
21592;DHT22;10958;50.892;3.992;2022-11-28T17:37:40;11.50;99.90
21592;DHT22;10958;50.892;3.992;2022-11-28T17:40:06;11.60;99.90
21592;DHT22;10958;50.892;3.992;2022-11-28T17:42:50;11.70;99.90
21592;DHT22;10958;50.892;3.992;2022-11-28T17:45:16;11.80;99.90
21592;DHT22;10958;50.892;3.992;2022-11-28T17:47:42;11.90;99.90
21592;DHT22;10958;50.892;3.992;2022-11-28T17:50:08;11.80;99.90
21592;DHT22;10958;50.892;3.992;2022-11-28T17:52:35;11.90;99.90
21592;DHT22;10958;50.892;3.992;2022-11-28T17:55:01;11.80;99.90
21592;DHT22;10958;50.892;3.992;2022-11-28T17:57:29;11.60;99.90
21592;DHT22;10958;50.892;3.992;2022-11-28T17:59:55;11.50;99.90
21592;DHT22;10958;50.892;3.992;2022-11-28T18:02:21;11.80;99.90
21592;DHT22;10958;50.892;3.992;2022-11-28T18:04:47;11.90;99.90
21592;DHT22;10958;50.892;3.992;2022-11-28T18:07:13;11.90;99.90
21592;DHT22;10958;50.892;3.992;2022-11-28T18:09:40;11.90;99.90
21592;DHT22;10958;50.892;3.992;2022-11-28T18:12:15;11.80;99.90
21592;DHT22;10958;50.892;3.992;2022-11-28T18:14:48;11.90;99.90
21592;DHT22;10958;50.892;3.992;2022-11-28T18:17:13;11.60;99.90
21592;DHT22;10958;50.892;3.992;2022-11-28T18:19:40;11.60;99.90
21592;DHT22;10958;50.892;3.992;2022-11-28T18:22:15;11.60;99.90
21592;DHT22;10958;50.892;3.992;2022-11-28T18:24:42;11.70;99.90
21592;DHT22;10958;50.892;3.992;2022-11-28T18:27:15;11.70;99.90
21592;DHT22;10958;50.892;3.992;2022-11-28T18:29:41;11.70;99.90
21592;DHT22;10958;50.892;3.992;2022-11-28T18:32:13;11.50;99.90
21592;DHT22;10958;50.892;3.992;2022-11-28T18:34:39;11.40;99.90
21592;DHT22;10958;50.892;3.992;2022-11-28T18:37:07;11.30;99.90
21592;DHT22;10958;50.892;3.992;2022-11-28T18:39:33;11.10;99.90
21592;DHT22;10958;50.892;3.992;2022-11-28T18:42:00;11.20;99.90
21592;DHT22;10958;50.892;3.992;2022-11-28T18:44:26;11.10;99.90
21592;DHT22;10958;50.892;3.992;2022-11-28T18:46:55;11.00;99.90
21592;DHT22;10958;50.892;3.992;2022-11-28T18:49:21;11.10;99.90
21592;DHT22;10958;50.892;3.992;2022-11-28T18:51:47;11.20;99.90
21592;DHT22;10958;50.892;3.992;2022-11-28T18:54:13;11.30;99.90
21592;DHT22;10958;50.892;3.992;2022-11-28T18:56:41;11.50;99.90
21592;DHT22;10958;50.892;3.992;2022-11-28T18:59:09;11.60;99.90
21592;DHT22;10958;50.892;3.992;2022-11-28T19:01:34;11.60;99.90
21592;DHT22;10958;50.892;3.992;2022-11-28T19:04:03;11.80;99.90
21592;DHT22;10958;50.892;3.992;2022-11-28T19:06:30;11.60;99.90
21592;DHT22;10958;50.892;3.992;2022-11-28T19:08:58;11.50;99.90
21592;DHT22;10958;50.892;3.992;2022-11-28T19:11:27;11.60;99.90
21592;DHT22;10958;50.892;3.992;2022-11-28T19:13:56;11.60;99.90
21592;DHT22;10958;50.892;3.992;2022-11-28T19:18:50;11.70;99.90
21592;DHT22;10958;50.892;3.992;2022-11-28T19:23:59;11.40;99.90
21592;DHT22;10958;50.892;3.992;2022-11-28T19:26:28;11.40;99.90